LTCK/MSR METAR and TAF weather

Enter ICAO airport designator
Station Type Date Time Source
LTCK METAR 2020/01/20 12:50 UTC NOAA

LTCK 201250Z 00000KT 2500 -SN BR FEW019 SCT035 OVC070 M01/M03 Q1021


Station Type Date Time Source
LTCK Decoded METAR 2020/01/20 12:50 UTC NOAA

Mus Tur-Afb , Turkey (LTCK) 38-45N 041-40E
Jan 20, 2020 - 07:50 AM EST / 2020.01.20 1250 UTC
Wind: Calm:0
Visibility: 1 mile(s):0
Sky conditions: overcast
Weather: light snow; mist
Temperature: 30 F (-1 C)
Dew Point: 26 F (-3 C)
Relative Humidity: 86%
Pressure (altimeter): 30.15 in. Hg (1021 hPa)
ob: LTCK 201250Z 00000KT 2500 -SN BR FEW019 SCT035 OVC070 M01/M03 Q1021
cycle: 13

Station Type Date Time Source
LTCK TAF UTC NOAA

Error!

Example: see airport list